createdAt,value
2023-04-30T00:01:28.041Z,1.60
2023-04-30T00:03:54.742Z,1.60
2023-04-30T00:06:21.504Z,1.85
2023-04-30T00:08:48.073Z,1.98
2023-04-30T00:11:14.613Z,1.60
2023-04-30T00:13:42.934Z,1.90
2023-04-30T00:16:09.672Z,1.70
2023-04-30T00:18:36.281Z,1.58
2023-04-30T00:21:02.812Z,1.90
2023-04-30T00:23:29.323Z,1.60
2023-04-30T00:25:56.128Z,1.75
2023-04-30T00:28:22.720Z,1.92
2023-04-30T00:30:49.203Z,1.80
2023-04-30T00:33:15.732Z,1.67
2023-04-30T00:35:43.381Z,1.63
2023-04-30T00:38:09.942Z,1.60
2023-04-30T00:40:38.140Z,1.50
2023-04-30T00:43:04.645Z,1.75
2023-04-30T00:45:31.296Z,1.85
2023-04-30T00:47:58.217Z,1.88
2023-04-30T00:50:25.152Z,1.83
2023-04-30T00:52:51.780Z,1.60
2023-04-30T00:55:18.722Z,1.60
2023-04-30T00:57:45.585Z,1.88
2023-04-30T01:00:13.750Z,1.70
2023-04-30T01:02:41.329Z,1.90
2023-04-30T01:05:08.272Z,1.60
2023-04-30T01:07:36.505Z,2.10
2023-04-30T01:10:03.249Z,1.42
2023-04-30T01:12:39.959Z,1.95
2023-04-30T01:15:24.011Z,1.63
2023-04-30T01:18:04.206Z,1.83
2023-04-30T01:20:32.294Z,1.92
2023-04-30T01:23:07.933Z,1.60
2023-04-30T01:25:40.652Z,1.67
2023-04-30T01:28:25.408Z,1.80
2023-04-30T01:30:52.044Z,1.70
2023-04-30T01:33:18.676Z,1.50
2023-04-30T01:36:09.303Z,1.90
2023-04-30T01:42:06.356Z,1.67
2023-04-30T01:44:51.531Z,1.70
2023-04-30T01:47:39.102Z,1.63
2023-04-30T01:50:37.743Z,1.65
2023-04-30T01:53:09.672Z,1.92
2023-04-30T01:55:41.761Z,1.60
2023-04-30T01:58:12.448Z,1.60
2023-04-30T02:00:39.102Z,1.77
2023-04-30T02:03:05.963Z,1.77
2023-04-30T02:05:32.642Z,1.88
2023-04-30T02:07:59.164Z,1.80
2023-04-30T02:10:27.114Z,1.67
2023-04-30T02:12:54.229Z,1.40
2023-04-30T02:15:20.952Z,1.55
2023-04-30T02:17:47.890Z,1.90
2023-04-30T02:20:14.492Z,1.52
2023-04-30T02:22:41.077Z,1.63
2023-04-30T02:25:08.047Z,1.63
2023-04-30T02:27:35.002Z,1.60
2023-04-30T02:30:01.562Z,1.45
2023-04-30T02:32:28.299Z,1.70
2023-04-30T02:34:54.910Z,1.88
2023-04-30T02:37:21.494Z,1.70
2023-04-30T02:39:48.219Z,1.60
2023-04-30T02:42:14.941Z,1.88
2023-04-30T02:44:41.791Z,1.70
2023-04-30T02:47:08.304Z,1.85
2023-04-30T02:49:34.810Z,1.70
2023-04-30T02:52:01.749Z,1.73
2023-04-30T02:54:28.329Z,1.50
2023-04-30T02:56:54.908Z,1.90
2023-04-30T02:59:21.442Z,1.50
2023-04-30T03:01:47.973Z,1.63
2023-04-30T03:04:14.473Z,1.70
2023-04-30T03:06:41.124Z,2.35
2023-04-30T03:09:08.232Z,1.42
2023-04-30T03:11:37.741Z,1.40
2023-04-30T03:14:04.961Z,1.60
2023-04-30T03:16:31.617Z,1.75
2023-04-30T03:18:58.454Z,1.90
2023-04-30T03:21:25.062Z,1.60
2023-04-30T03:23:51.731Z,1.80
2023-04-30T03:26:18.345Z,1.55
2023-04-30T03:28:44.935Z,1.50
2023-04-30T03:31:11.646Z,1.70
2023-04-30T03:33:38.306Z,1.73
2023-04-30T03:36:05.006Z,1.63
2023-04-30T03:38:31.488Z,1.70
2023-04-30T03:40:57.977Z,1.70
2023-04-30T03:43:24.494Z,1.50
2023-04-30T03:45:51.092Z,1.70
2023-04-30T03:48:18.108Z,1.85
2023-04-30T03:50:45.272Z,1.60
2023-04-30T03:53:11.805Z,1.45
2023-04-30T03:55:38.710Z,1.58
2023-04-30T03:58:05.300Z,1.60
2023-04-30T04:00:31.856Z,1.70
2023-04-30T04:02:59.579Z,1.38
2023-04-30T04:05:26.743Z,2.15
2023-04-30T04:07:53.344Z,1.60
2023-04-30T04:10:20.086Z,1.50
2023-04-30T04:12:46.628Z,1.35
2023-04-30T04:15:13.485Z,1.38
2023-04-30T04:17:40.441Z,1.63
2023-04-30T04:20:07.800Z,1.33
2023-04-30T04:22:34.364Z,1.58
2023-04-30T04:25:01.381Z,1.40
2023-04-30T04:27:27.901Z,1.67
2023-04-30T04:29:55.464Z,1.38
2023-04-30T04:32:22.811Z,1.67
2023-04-30T04:34:49.666Z,1.35
2023-04-30T04:37:17.560Z,1.50
2023-04-30T04:39:45.154Z,1.30
2023-04-30T04:42:12.042Z,1.27
2023-04-30T04:44:38.630Z,1.13
2023-04-30T04:47:05.299Z,1.10
2023-04-30T04:49:31.811Z,1.05
2023-04-30T04:51:58.385Z,1.10
2023-04-30T04:54:24.960Z,1.38
2023-04-30T04:56:51.772Z,1.05
2023-04-30T04:59:18.970Z,1.17
2023-04-30T05:01:45.581Z,1.10
2023-04-30T05:04:13.853Z,1.35
2023-04-30T05:06:41.535Z,1.30
2023-04-30T05:09:09.568Z,1.20
2023-04-30T05:11:36.505Z,1.13
2023-04-30T05:14:03.206Z,1.00
2023-04-30T05:16:30.197Z,1.20
2023-04-30T05:18:56.768Z,1.30
2023-04-30T05:21:23.408Z,1.10
2023-04-30T05:23:49.888Z,1.10
2023-04-30T05:26:16.503Z,1.10
2023-04-30T05:28:43.112Z,1.10
2023-04-30T05:31:09.622Z,1.10
2023-04-30T05:33:37.186Z,1.20
2023-04-30T05:36:03.980Z,1.10
2023-04-30T05:38:30.535Z,1.20
2023-04-30T05:40:57.063Z,1.10
2023-04-30T05:43:23.628Z,1.10
2023-04-30T05:45:50.212Z,1.10
2023-04-30T05:48:16.855Z,1.35
2023-04-30T05:50:43.719Z,1.10
2023-04-30T05:53:10.302Z,1.20
2023-04-30T05:55:36.910Z,1.35
2023-04-30T05:58:03.518Z,1.20
2023-04-30T06:00:30.166Z,1.30
2023-04-30T06:02:56.919Z,1.13
2023-04-30T06:05:23.643Z,1.00
2023-04-30T06:07:50.293Z,1.10
2023-04-30T06:10:16.979Z,1.40
2023-04-30T06:12:43.484Z,1.17
2023-04-30T06:15:10.388Z,1.10
2023-04-30T06:17:37.039Z,1.17
2023-04-30T06:20:07.026Z,1.20
2023-04-30T06:22:34.469Z,1.00
2023-04-30T06:25:01.070Z,0.93
2023-04-30T06:27:32.379Z,1.10
2023-04-30T06:30:00.873Z,1.27
2023-04-30T06:32:27.719Z,0.95
2023-04-30T06:34:55.282Z,1.15
2023-04-30T06:37:21.809Z,1.00
2023-04-30T06:39:49.062Z,0.90
2023-04-30T06:42:15.547Z,1.10
2023-04-30T06:44:42.010Z,0.90
2023-04-30T06:47:08.595Z,1.30
2023-04-30T06:49:35.286Z,1.00
2023-04-30T06:52:01.837Z,1.27
2023-04-30T06:54:28.336Z,1.20
2023-04-30T06:56:54.856Z,1.15
2023-04-30T06:59:21.603Z,1.20
2023-04-30T07:01:48.257Z,1.10
2023-04-30T07:04:14.913Z,1.02
2023-04-30T07:06:41.786Z,1.10
2023-04-30T07:09:08.909Z,1.40
2023-04-30T07:11:35.426Z,1.23
2023-04-30T07:14:01.946Z,1.08
2023-04-30T07:16:28.496Z,1.10
2023-04-30T07:18:55.132Z,1.00
2023-04-30T07:21:22.103Z,1.00
2023-04-30T07:23:51.541Z,0.80
2023-04-30T07:26:18.421Z,0.93
2023-04-30T07:28:47.883Z,0.90
2023-04-30T07:31:14.565Z,1.00
2023-04-30T07:33:41.232Z,1.13
2023-04-30T07:36:07.787Z,1.13
2023-04-30T07:38:34.445Z,1.13
2023-04-30T07:41:01.787Z,1.23
2023-04-30T07:43:30.612Z,1.10
2023-04-30T07:45:58.293Z,1.00
2023-04-30T07:48:24.832Z,1.00
2023-04-30T07:50:52.874Z,0.98
2023-04-30T07:53:19.793Z,1.10
2023-04-30T07:55:46.575Z,0.88
2023-04-30T07:58:13.198Z,1.10
2023-04-30T08:00:39.766Z,1.30
2023-04-30T08:03:06.579Z,1.15
2023-04-30T08:05:33.301Z,1.10
2023-04-30T08:08:00.186Z,1.10
2023-04-30T08:10:26.761Z,1.00
2023-04-30T08:12:53.275Z,0.95
2023-04-30T08:15:21.889Z,1.10
2023-04-30T08:17:52.398Z,1.05
2023-04-30T08:22:47.081Z,1.00
2023-04-30T08:25:13.629Z,1.20
2023-04-30T08:27:40.222Z,0.90
2023-04-30T08:30:08.758Z,1.30
2023-04-30T08:32:36.385Z,1.08
2023-04-30T08:35:06.820Z,1.10
2023-04-30T08:37:33.578Z,1.00
2023-04-30T08:40:00.806Z,0.75
2023-04-30T08:42:34.746Z,1.13
2023-04-30T08:45:03.456Z,1.10
2023-04-30T08:47:30.710Z,1.20
2023-04-30T08:49:57.540Z,1.00
2023-04-30T08:52:26.787Z,1.10
2023-04-30T08:54:55.315Z,1.10
2023-04-30T08:57:21.894Z,1.10
2023-04-30T08:59:48.484Z,1.00
2023-04-30T09:02:15.082Z,0.93
2023-04-30T09:04:41.585Z,1.10
2023-04-30T09:07:09.762Z,1.10
2023-04-30T09:09:39.928Z,1.15
2023-04-30T09:12:19.147Z,1.95
2023-04-30T09:15:01.545Z,1.80
2023-04-30T09:17:28.343Z,2.30
2023-04-30T09:19:56.271Z,2.45
2023-04-30T09:22:24.434Z,2.00
2023-04-30T09:24:51.576Z,1.80
2023-04-30T09:27:22.959Z,2.58
2023-04-30T09:29:49.535Z,1.83
2023-04-30T09:32:16.160Z,2.38
2023-04-30T09:34:43.437Z,2.78
2023-04-30T09:37:11.031Z,3.08
2023-04-30T09:39:56.625Z,2.83
2023-04-30T09:42:23.492Z,2.63
2023-04-30T09:44:50.082Z,2.45
2023-04-30T09:47:21.122Z,2.60
2023-04-30T09:49:51.877Z,2.38
2023-04-30T09:52:19.702Z,2.10
2023-04-30T09:54:46.952Z,2.00
2023-04-30T09:57:15.999Z,2.53
2023-04-30T09:59:46.999Z,1.90
2023-04-30T10:02:16.342Z,1.80
2023-04-30T10:04:44.971Z,1.90
2023-04-30T10:07:22.531Z,2.00
2023-04-30T10:10:02.920Z,1.83
2023-04-30T10:12:40.596Z,1.63
2023-04-30T10:15:20.780Z,2.05
2023-04-30T10:17:54.599Z,1.92
2023-04-30T10:20:22.592Z,1.65
2023-04-30T10:22:49.992Z,1.50
2023-04-30T10:25:16.908Z,1.50
2023-04-30T10:27:43.654Z,1.58
2023-04-30T10:30:11.580Z,1.55
2023-04-30T10:33:05.446Z,1.42
2023-04-30T10:35:40.508Z,1.58
2023-04-30T10:38:21.896Z,1.60
2023-04-30T10:40:48.676Z,1.38
2023-04-30T10:43:19.466Z,1.13
2023-04-30T10:45:46.207Z,1.20
2023-04-30T10:48:15.395Z,1.20
2023-04-30T10:50:46.682Z,1.30
2023-04-30T10:53:19.796Z,1.23
2023-04-30T10:55:54.216Z,1.20
2023-04-30T10:58:47.294Z,1.08
2023-04-30T11:01:15.753Z,1.20
2023-04-30T11:04:03.139Z,1.17
2023-04-30T11:06:51.723Z,1.33
2023-04-30T11:09:18.668Z,1.13
2023-04-30T11:11:47.402Z,1.02
2023-04-30T11:14:20.860Z,0.82
2023-04-30T11:16:51.185Z,0.90
2023-04-30T11:19:19.081Z,0.90
2023-04-30T11:22:04.006Z,1.10
2023-04-30T11:24:58.365Z,1.17
2023-04-30T11:27:45.069Z,0.95
2023-04-30T11:30:12.534Z,0.98
2023-04-30T11:32:40.039Z,1.00
2023-04-30T11:35:07.713Z,0.93
2023-04-30T11:37:34.217Z,0.90
2023-04-30T11:40:07.783Z,0.90
2023-04-30T11:42:35.131Z,0.85
2023-04-30T11:45:05.130Z,0.85
2023-04-30T11:47:42.006Z,0.80
2023-04-30T11:50:11.910Z,0.70
2023-04-30T11:52:39.740Z,1.17
2023-04-30T11:55:14.933Z,0.80
2023-04-30T11:57:46.690Z,0.77
2023-04-30T12:00:21.448Z,0.70
2023-04-30T12:02:49.588Z,1.00
2023-04-30T12:05:18.223Z,0.88
2023-04-30T12:07:47.180Z,0.90
2023-04-30T12:10:13.891Z,0.90
2023-04-30T12:12:40.757Z,1.10
2023-04-30T12:15:18.434Z,0.95
2023-04-30T12:17:46.909Z,0.65
2023-04-30T12:20:15.224Z,0.90
2023-04-30T12:22:43.790Z,0.80
2023-04-30T12:25:15.863Z,0.90
2023-04-30T12:27:45.281Z,0.90
2023-04-30T12:30:13.208Z,0.80
2023-04-30T12:32:44.871Z,1.73
2023-04-30T12:35:19.734Z,2.45
2023-04-30T12:37:50.128Z,2.10
2023-04-30T12:40:18.704Z,2.15
2023-04-30T12:42:47.035Z,1.55
2023-04-30T12:45:34.146Z,2.47
2023-04-30T12:48:00.876Z,2.50
2023-04-30T12:50:27.496Z,2.42
2023-04-30T12:52:54.249Z,2.53
2023-04-30T12:55:21.606Z,2.17
2023-04-30T12:58:04.827Z,1.70
2023-04-30T13:00:43.936Z,1.77
2023-04-30T13:03:11.386Z,1.45
2023-04-30T13:05:38.130Z,2.03
2023-04-30T13:08:06.451Z,1.67
2023-04-30T13:10:33.192Z,1.42
2023-04-30T13:13:00.011Z,1.23
2023-04-30T13:15:26.727Z,1.45
2023-04-30T13:17:54.032Z,1.58
2023-04-30T13:20:20.647Z,1.10
2023-04-30T13:22:47.340Z,1.17
2023-04-30T13:25:13.882Z,1.52
2023-04-30T13:27:40.407Z,1.27
2023-04-30T13:30:07.590Z,1.58
2023-04-30T13:32:34.284Z,1.15
2023-04-30T13:35:01.231Z,1.25
2023-04-30T13:37:27.852Z,0.93
2023-04-30T13:39:54.588Z,0.90
2023-04-30T13:42:21.659Z,1.42
2023-04-30T13:44:50.007Z,1.20
2023-04-30T13:47:16.724Z,1.10
2023-04-30T13:49:43.216Z,1.15
2023-04-30T13:52:09.835Z,1.27
2023-04-30T13:54:37.493Z,1.10
2023-04-30T13:57:04.352Z,1.25
2023-04-30T13:59:31.907Z,1.20
2023-04-30T14:01:58.539Z,1.27
2023-04-30T14:04:25.034Z,1.20
2023-04-30T14:06:52.924Z,1.35
2023-04-30T14:09:19.423Z,1.10
2023-04-30T14:11:45.960Z,1.30
2023-04-30T14:14:12.852Z,1.20
2023-04-30T14:16:39.568Z,1.40
2023-04-30T14:19:06.252Z,1.30
2023-04-30T14:21:34.301Z,1.25
2023-04-30T14:24:00.779Z,1.25
2023-04-30T14:26:27.384Z,1.35
2023-04-30T14:28:53.884Z,1.10
2023-04-30T14:31:20.466Z,1.30
2023-04-30T14:33:47.062Z,1.45
2023-04-30T14:36:13.566Z,0.98
2023-04-30T14:38:40.088Z,1.00
2023-04-30T14:41:06.696Z,1.15
2023-04-30T14:43:33.235Z,1.13
2023-04-30T14:45:59.933Z,1.20
2023-04-30T14:48:27.016Z,1.10
2023-04-30T14:50:53.503Z,1.50
2023-04-30T14:53:19.997Z,2.17
2023-04-30T14:55:46.568Z,2.30
2023-04-30T14:58:13.438Z,2.28
2023-04-30T15:00:39.955Z,3.10
2023-04-30T15:03:06.642Z,3.40
2023-04-30T15:05:33.446Z,4.72
2023-04-30T15:07:59.950Z,4.85
2023-04-30T15:10:27.011Z,4.70
2023-04-30T15:12:53.947Z,5.60
2023-04-30T15:15:22.538Z,5.25
2023-04-30T15:17:49.434Z,5.20
2023-04-30T15:20:16.144Z,6.47
2023-04-30T15:22:42.788Z,5.82
2023-04-30T15:25:10.184Z,7.05
2023-04-30T15:27:36.905Z,6.45
2023-04-30T15:30:03.973Z,7.13
2023-04-30T15:32:30.574Z,6.10
2023-04-30T15:34:57.067Z,6.15
2023-04-30T15:37:23.650Z,7.13
2023-04-30T15:39:50.165Z,6.03
2023-04-30T15:42:16.713Z,6.45
2023-04-30T15:44:43.181Z,6.10
2023-04-30T15:47:09.810Z,5.40
2023-04-30T15:49:36.287Z,5.63
2023-04-30T15:52:02.878Z,5.88
2023-04-30T15:54:29.693Z,5.90
2023-04-30T15:56:56.170Z,5.13
2023-04-30T15:59:22.701Z,4.78
2023-04-30T16:01:49.289Z,5.10
2023-04-30T16:04:15.848Z,5.30
2023-04-30T16:06:42.488Z,4.70
2023-04-30T16:09:09.250Z,6.13
2023-04-30T16:11:36.495Z,5.10
2023-04-30T16:14:03.318Z,4.25
2023-04-30T16:16:30.330Z,4.72
2023-04-30T16:18:56.887Z,4.40
2023-04-30T16:21:23.887Z,4.47
2023-04-30T16:23:50.676Z,3.88
2023-04-30T16:26:17.825Z,4.78
2023-04-30T16:28:46.337Z,4.72
2023-04-30T16:31:15.613Z,4.70
2023-04-30T16:33:42.876Z,4.80
2023-04-30T16:36:09.949Z,4.25
2023-04-30T16:38:37.040Z,4.10
2023-04-30T16:41:03.659Z,3.70
2023-04-30T16:43:30.288Z,4.00
2023-04-30T16:45:56.900Z,3.90
2023-04-30T16:48:23.561Z,3.58
2023-04-30T16:50:50.365Z,4.30
2023-04-30T16:53:16.889Z,4.03
2023-04-30T16:55:43.797Z,4.03
2023-04-30T16:58:10.564Z,3.55
2023-04-30T17:00:37.060Z,3.70
2023-04-30T17:03:04.881Z,3.10
2023-04-30T17:05:31.896Z,3.63
2023-04-30T17:07:58.497Z,3.15
2023-04-30T17:10:25.602Z,3.30
2023-04-30T17:12:52.341Z,3.63
2023-04-30T17:15:19.999Z,3.58
2023-04-30T17:17:46.512Z,3.35
2023-04-30T17:20:13.096Z,3.20
2023-04-30T17:22:40.480Z,2.90
2023-04-30T17:25:07.274Z,2.90
2023-04-30T17:27:33.820Z,3.30
2023-04-30T17:30:00.386Z,3.17
2023-04-30T17:32:27.059Z,3.10
2023-04-30T17:34:53.823Z,2.58
2023-04-30T17:37:20.386Z,2.45
2023-04-30T17:39:46.930Z,2.83
2023-04-30T17:42:13.535Z,2.38
2023-04-30T17:44:40.245Z,2.30
2023-04-30T17:47:07.639Z,2.47
2023-04-30T17:49:34.286Z,2.38
2023-04-30T17:52:01.285Z,2.17
2023-04-30T17:54:30.954Z,2.35
2023-04-30T17:56:59.155Z,2.45
2023-04-30T17:59:32.436Z,2.28
2023-04-30T18:01:59.248Z,2.47
2023-04-30T18:04:25.998Z,1.90
2023-04-30T18:06:52.606Z,2.38
2023-04-30T18:09:19.176Z,2.13
2023-04-30T18:11:45.884Z,2.00
2023-04-30T18:14:12.658Z,2.05
2023-04-30T18:16:39.330Z,1.80
2023-04-30T18:19:06.093Z,1.92
2023-04-30T18:21:32.609Z,1.90
2023-04-30T18:23:59.256Z,1.65
2023-04-30T18:26:25.913Z,2.13
2023-04-30T18:28:52.505Z,1.75
2023-04-30T18:31:19.170Z,1.90
2023-04-30T18:33:46.016Z,1.70
2023-04-30T18:36:13.187Z,1.63
2023-04-30T18:38:39.846Z,1.77
2023-04-30T18:41:07.257Z,2.03
2023-04-30T18:43:34.017Z,1.48
2023-04-30T18:46:00.792Z,1.60
2023-04-30T18:48:27.363Z,1.50
2023-04-30T18:50:53.907Z,1.70
2023-04-30T18:53:20.488Z,1.55
2023-04-30T18:55:47.398Z,1.73
2023-04-30T18:58:13.951Z,1.40
2023-04-30T19:00:42.905Z,1.30
2023-04-30T19:03:10.036Z,1.83
2023-04-30T19:05:37.774Z,1.73
2023-04-30T19:08:04.533Z,1.25
2023-04-30T19:10:31.107Z,1.80
2023-04-30T19:12:57.783Z,1.60
2023-04-30T19:15:25.636Z,1.13
2023-04-30T19:17:52.249Z,1.45
2023-04-30T19:20:18.905Z,1.40
2023-04-30T19:22:45.869Z,1.42
2023-04-30T19:25:12.499Z,1.27
2023-04-30T19:27:39.026Z,1.40
2023-04-30T19:30:06.288Z,1.33
2023-04-30T19:32:32.838Z,1.73
2023-04-30T19:34:59.603Z,1.40
2023-04-30T19:37:26.892Z,1.30
2023-04-30T19:39:53.634Z,1.30
2023-04-30T19:42:20.271Z,1.40
2023-04-30T19:44:46.823Z,1.17
2023-04-30T19:47:13.646Z,1.40
2023-04-30T19:49:40.226Z,1.30
2023-04-30T19:52:08.008Z,1.23
2023-04-30T19:54:34.686Z,1.05
2023-04-30T19:57:02.093Z,1.27
2023-04-30T19:59:28.635Z,1.40
2023-04-30T20:01:55.236Z,1.00
2023-04-30T20:04:22.355Z,1.27
2023-04-30T20:06:55.925Z,1.23
2023-04-30T20:09:23.023Z,1.30
2023-04-30T20:11:51.430Z,1.50
2023-04-30T20:14:18.563Z,1.13
2023-04-30T20:16:46.400Z,1.20
2023-04-30T20:19:14.063Z,1.10
2023-04-30T20:21:40.607Z,1.27
2023-04-30T20:24:07.121Z,1.10
2023-04-30T20:26:34.514Z,1.10
2023-04-30T20:29:01.162Z,1.15
2023-04-30T20:31:31.148Z,1.15
2023-04-30T20:33:57.915Z,1.75
2023-04-30T20:36:24.426Z,1.17
2023-04-30T20:38:53.429Z,1.38
2023-04-30T20:41:20.035Z,1.52
2023-04-30T20:43:46.568Z,1.50
2023-04-30T20:46:13.876Z,1.42
2023-04-30T20:48:40.932Z,1.55
2023-04-30T20:51:07.931Z,1.38
2023-04-30T20:53:34.495Z,1.30
2023-04-30T20:56:01.434Z,1.67
2023-04-30T20:58:28.325Z,1.20
2023-04-30T21:00:54.854Z,1.20
2023-04-30T21:03:21.434Z,1.50
2023-04-30T21:05:48.600Z,1.30
2023-04-30T21:08:15.094Z,1.40
2023-04-30T21:10:41.667Z,1.63
2023-04-30T21:13:09.479Z,1.75
2023-04-30T21:15:36.390Z,1.10
2023-04-30T21:18:03.300Z,1.30
2023-04-30T21:20:31.390Z,1.38
2023-04-30T21:22:58.204Z,1.80
2023-04-30T21:25:24.751Z,1.38
2023-04-30T21:27:52.222Z,1.10
2023-04-30T21:30:19.120Z,1.38
2023-04-30T21:32:49.278Z,1.20
2023-04-30T21:35:16.020Z,1.23
2023-04-30T21:37:42.619Z,1.00
2023-04-30T21:40:09.642Z,1.10
2023-04-30T21:42:36.350Z,1.20
2023-04-30T21:45:03.331Z,1.17
2023-04-30T21:47:30.635Z,1.40
2023-04-30T21:49:58.686Z,1.20
2023-04-30T21:52:25.467Z,1.10
2023-04-30T21:54:51.999Z,1.15
2023-04-30T21:57:19.230Z,1.15
2023-04-30T21:59:45.733Z,0.95
2023-04-30T22:02:22.901Z,1.10
2023-04-30T22:04:50.606Z,1.13
2023-04-30T22:07:17.422Z,1.10
2023-04-30T22:09:44.789Z,0.90
2023-04-30T22:12:11.620Z,1.10
2023-04-30T22:14:38.268Z,1.10
2023-04-30T22:17:04.811Z,1.00
2023-04-30T22:19:31.431Z,0.90
2023-04-30T22:21:58.038Z,1.02
2023-04-30T22:24:24.890Z,1.23
2023-04-30T22:26:51.528Z,1.20
2023-04-30T22:29:18.178Z,0.90
2023-04-30T22:31:44.821Z,0.98
2023-04-30T22:34:12.570Z,0.90
2023-04-30T22:36:39.169Z,1.00
2023-04-30T22:39:06.108Z,1.08
2023-04-30T22:41:34.617Z,0.95
2023-04-30T22:44:01.716Z,0.80
2023-04-30T22:46:30.075Z,1.00
2023-04-30T22:48:56.710Z,1.13
2023-04-30T22:51:23.361Z,1.00
2023-04-30T22:53:49.951Z,0.80
2023-04-30T22:56:16.481Z,0.75
2023-04-30T22:58:42.967Z,1.20
2023-04-30T23:01:09.609Z,0.90
2023-04-30T23:03:37.893Z,1.10
2023-04-30T23:06:04.771Z,0.88
2023-04-30T23:08:31.332Z,1.00
2023-04-30T23:10:57.884Z,1.00
2023-04-30T23:13:24.598Z,1.10
2023-04-30T23:15:51.161Z,1.10
2023-04-30T23:18:18.584Z,0.80
2023-04-30T23:20:45.214Z,1.00
2023-04-30T23:23:11.682Z,0.70
2023-04-30T23:25:38.238Z,0.80
2023-04-30T23:28:05.039Z,0.95
2023-04-30T23:30:31.743Z,1.02
2023-04-30T23:32:58.295Z,1.00
2023-04-30T23:35:24.865Z,0.90
2023-04-30T23:37:51.447Z,0.90
2023-04-30T23:40:19.695Z,0.75
2023-04-30T23:42:46.572Z,0.90
2023-04-30T23:45:13.063Z,0.90
2023-04-30T23:47:39.655Z,0.82
2023-04-30T23:50:06.931Z,0.77
2023-04-30T23:52:33.508Z,0.90
2023-04-30T23:55:00.000Z,1.00
2023-04-30T23:57:28.044Z,1.10
2023-04-30T23:59:55.087Z,1.00
